Alanreed, TX

5:23 AM CST on March 06, 2015 (GMT -0600)
HADS LEFORS WEATHER STATION TX US USGS | Change Station
CLOSE
Current Station
Personal Weather Station
Location: Lefors, TX
Elevation: 2798 ft
Nearby Weather Stations

Elev 2798 ft 35.44 °N, 100.81 °W | Updated 23 minutes ago

Clear
Clear
28 °F
Feels Like 28 °F
N
1
Wind Variable Wind from SW
Gusts 0.0 mph

Today
High -- | Low -- °F
--% Chance of Precip.
Yesterday
High -- | Low -- °F
Precip. -- in
7:06 AM 6:42 PM
Full, 100% visible
Pressure 30.34 in
Visibility 10.0 miles
Clouds Clear
Windchill 28 °F
Dew Point 24 °F
Humidity 85%
Rainfall in
Snow Depth Not available.
UV 0 out of 12
Pollen 4.80 out of 12
Air Quality Not available.
Flu Activity Not available.
METAR KPPA 061115Z AUTO 24006KT 10SM CLR M03/M05 A3034 RMK AO2 T10351052

More Conditions Fewer Conditions

Pressure 30.34 in
Visibility 10.0 miles
Clouds Clear
Windchill 28 °F
Dew Point 24 °F
Humidity 85%
Rainfall in
Snow Depth Not available.
UV 0 out of 12
Pollen 4.80 out of 12
Air Quality Not available.
Flu Activity Not available.
METAR KPPA 061115Z AUTO 24006KT 10SM CLR M03/M05 A3034 RMK AO2 T10351052

More Conditions Fewer Conditions

10-Day Weather Forecast

Almanac

Astronomy

Mar. 06, 2015 Rise Set
Actual Time
Civil Twilight
Nautical Twilight
Astronomical Twilight
Moon
Length of Visible Light
Length of Day
Tomorrow will be .
, % of the Moon is Illuminated

Today's Extremes

State Highs State Lows

Community

WunderPhotos

Upload Photos

1,803,225 photos uploaded!

WunderBlogs® & News

Nearby

Air Quality

  Air Quality AQ Index Pollutant
Not available.

Snow Depth

Station Depth Elevation

Earthquake Activity

City Distance Mag. Time & Date
Minimum magnitude displayed is 2.5.

Coastal Water Temperatures

Place Temperature

Nearby Weather Stations